Parkers Prairie, Minnesota
Current Conditions -  °F | °C
As of 3:53 AM on Monday 22 Dec 2014 (Local Time) from KAXN Reporting Station
Haze Haze  
Wind Chill: 27°   Ceiling: 300
Heat Index: 36°   Visibility: 2mi
Dew Point: 35°   Wind: 14mph
Humidity: 97%   Direction: 150°SSE
Pressure: 29.55"   Gusts: NA
Location:  46.15°N, 95.33°W
Report Text: KAXN 220953Z AUTO 15012KT 2SM BR OVC003 02/02 A2955 RMK AO2 SLP021 T00220017
Loading
Personal Weather Stations






























Interactive Weather Map New forecast layout! Learn more

10-Day Weather Forecast

Advertisements
Track Severe Weather on mobile